sensor_id;sensor_type;location;lat;lon;timestamp;P1;durP1;ratioP1;P2;durP2;ratioP2
7969;SDS011;4030;52.362;9.206;2023-09-12T00:00:55;6.22;;;4.88;;
7969;SDS011;4030;52.362;9.206;2023-09-12T00:03:21;6.35;;;4.60;;
7969;SDS011;4030;52.362;9.206;2023-09-12T00:05:51;6.57;;;4.85;;
7969;SDS011;4030;52.362;9.206;2023-09-12T00:08:22;6.15;;;4.40;;
7969;SDS011;4030;52.362;9.206;2023-09-12T00:11:05;6.15;;;4.90;;
7969;SDS011;4030;52.362;9.206;2023-09-12T00:13:35;5.82;;;5.28;;
7969;SDS011;4030;52.362;9.206;2023-09-12T00:16:05;5.32;;;4.50;;
7969;SDS011;4030;52.362;9.206;2023-09-12T00:18:31;5.63;;;4.60;;
7969;SDS011;4030;52.362;9.206;2023-09-12T00:20:59;5.50;;;4.72;;
7969;SDS011;4030;52.362;9.206;2023-09-12T00:23:25;5.10;;;4.60;;
7969;SDS011;4030;52.362;9.206;2023-09-12T00:25:52;5.70;;;4.78;;
7969;SDS011;4030;52.362;9.206;2023-09-12T00:28:18;5.07;;;4.57;;
7969;SDS011;4030;52.362;9.206;2023-09-12T00:30:44;5.40;;;4.18;;
7969;SDS011;4030;52.362;9.206;2023-09-12T00:33:10;5.95;;;4.70;;
7969;SDS011;4030;52.362;9.206;2023-09-12T00:35:35;5.63;;;5.00;;
7969;SDS011;4030;52.362;9.206;2023-09-12T00:38:01;5.20;;;4.70;;
7969;SDS011;4030;52.362;9.206;2023-09-12T00:40:27;5.10;;;4.40;;
7969;SDS011;4030;52.362;9.206;2023-09-12T00:42:53;5.00;;;4.50;;
7969;SDS011;4030;52.362;9.206;2023-09-12T00:45:19;5.45;;;4.15;;
7969;SDS011;4030;52.362;9.206;2023-09-12T00:47:45;4.80;;;4.30;;
7969;SDS011;4030;52.362;9.206;2023-09-12T00:50:13;5.53;;;4.55;;
7969;SDS011;4030;52.362;9.206;2023-09-12T00:52:41;4.90;;;4.45;;
7969;SDS011;4030;52.362;9.206;2023-09-12T00:55:07;5.97;;;5.00;;
7969;SDS011;4030;52.362;9.206;2023-09-12T00:57:33;7.03;;;4.68;;
7969;SDS011;4030;52.362;9.206;2023-09-12T01:00:01;6.07;;;4.97;;
7969;SDS011;4030;52.362;9.206;2023-09-12T01:02:37;5.70;;;4.90;;
7969;SDS011;4030;52.362;9.206;2023-09-12T01:05:07;5.10;;;4.60;;
7969;SDS011;4030;52.362;9.206;2023-09-12T01:07:38;5.28;;;4.53;;
7969;SDS011;4030;52.362;9.206;2023-09-12T01:10:05;6.95;;;5.30;;
7969;SDS011;4030;52.362;9.206;2023-09-12T01:12:32;5.35;;;4.57;;
7969;SDS011;4030;52.362;9.206;2023-09-12T01:14:57;5.80;;;5.20;;
7969;SDS011;4030;52.362;9.206;2023-09-12T01:17:23;5.65;;;5.00;;
7969;SDS011;4030;52.362;9.206;2023-09-12T01:19:50;6.60;;;5.00;;
7969;SDS011;4030;52.362;9.206;2023-09-12T01:25:31;5.28;;;4.55;;
7969;SDS011;4030;52.362;9.206;2023-09-12T01:28:17;5.85;;;4.68;;
7969;SDS011;4030;52.362;9.206;2023-09-12T01:30:45;6.90;;;5.03;;
7969;SDS011;4030;52.362;9.206;2023-09-12T01:33:13;5.63;;;4.80;;
7969;SDS011;4030;52.362;9.206;2023-09-12T01:35:39;5.13;;;4.63;;
7969;SDS011;4030;52.362;9.206;2023-09-12T01:38:04;5.30;;;4.57;;
7969;SDS011;4030;52.362;9.206;2023-09-12T01:40:35;7.50;;;5.05;;
7969;SDS011;4030;52.362;9.206;2023-09-12T01:43:09;5.70;;;4.85;;
7969;SDS011;4030;52.362;9.206;2023-09-12T01:45:35;5.25;;;4.72;;
7969;SDS011;4030;52.362;9.206;2023-09-12T01:48:02;5.05;;;4.63;;
7969;SDS011;4030;52.362;9.206;2023-09-12T01:50:29;5.53;;;4.60;;
7969;SDS011;4030;52.362;9.206;2023-09-12T01:52:55;5.28;;;4.78;;
7969;SDS011;4030;52.362;9.206;2023-09-12T01:55:21;5.82;;;4.80;;
7969;SDS011;4030;52.362;9.206;2023-09-12T01:57:48;6.05;;;4.55;;
7969;SDS011;4030;52.362;9.206;2023-09-12T02:00:14;5.38;;;4.88;;
7969;SDS011;4030;52.362;9.206;2023-09-12T02:02:43;5.15;;;4.72;;
7969;SDS011;4030;52.362;9.206;2023-09-12T02:05:13;5.60;;;4.60;;
7969;SDS011;4030;52.362;9.206;2023-09-12T02:07:45;6.18;;;4.38;;
7969;SDS011;4030;52.362;9.206;2023-09-12T02:10:11;5.38;;;3.63;;
7969;SDS011;4030;52.362;9.206;2023-09-12T02:12:38;5.20;;;3.95;;
7969;SDS011;4030;52.362;9.206;2023-09-12T02:15:04;4.70;;;4.10;;
7969;SDS011;4030;52.362;9.206;2023-09-12T02:17:31;4.95;;;4.03;;
7969;SDS011;4030;52.362;9.206;2023-09-12T02:19:57;4.70;;;4.00;;
7969;SDS011;4030;52.362;9.206;2023-09-12T02:22:22;4.28;;;3.88;;
7969;SDS011;4030;52.362;9.206;2023-09-12T02:24:48;3.70;;;3.40;;
7969;SDS011;4030;52.362;9.206;2023-09-12T02:27:15;3.78;;;3.42;;
7969;SDS011;4030;52.362;9.206;2023-09-12T02:29:41;4.97;;;3.72;;
7969;SDS011;4030;52.362;9.206;2023-09-12T02:32:07;3.83;;;3.47;;
7969;SDS011;4030;52.362;9.206;2023-09-12T02:34:34;3.72;;;3.42;;
7969;SDS011;4030;52.362;9.206;2023-09-12T02:37:00;4.00;;;3.40;;
7969;SDS011;4030;52.362;9.206;2023-09-12T02:39:26;4.00;;;3.67;;
7969;SDS011;4030;52.362;9.206;2023-09-12T02:41:51;4.57;;;3.30;;
7969;SDS011;4030;52.362;9.206;2023-09-12T02:44:17;5.35;;;3.20;;
7969;SDS011;4030;52.362;9.206;2023-09-12T02:46:43;4.55;;;3.80;;
7969;SDS011;4030;52.362;9.206;2023-09-12T02:49:08;5.00;;;3.60;;
7969;SDS011;4030;52.362;9.206;2023-09-12T02:51:37;3.75;;;3.13;;
7969;SDS011;4030;52.362;9.206;2023-09-12T02:54:04;4.28;;;3.40;;
7969;SDS011;4030;52.362;9.206;2023-09-12T02:56:30;3.33;;;3.03;;
7969;SDS011;4030;52.362;9.206;2023-09-12T02:58:56;4.18;;;3.17;;
7969;SDS011;4030;52.362;9.206;2023-09-12T03:01:22;3.25;;;2.92;;
7969;SDS011;4030;52.362;9.206;2023-09-12T03:03:51;3.40;;;3.03;;
7969;SDS011;4030;52.362;9.206;2023-09-12T03:06:16;5.28;;;3.30;;
7969;SDS011;4030;52.362;9.206;2023-09-12T03:08:45;3.30;;;2.90;;
7969;SDS011;4030;52.362;9.206;2023-09-12T03:11:12;5.38;;;3.22;;
7969;SDS011;4030;52.362;9.206;2023-09-12T03:13:40;3.75;;;3.17;;
7969;SDS011;4030;52.362;9.206;2023-09-12T03:16:13;4.68;;;3.60;;
7969;SDS011;4030;52.362;9.206;2023-09-12T03:18:39;4.03;;;3.30;;
7969;SDS011;4030;52.362;9.206;2023-09-12T03:21:05;3.60;;;2.95;;
7969;SDS011;4030;52.362;9.206;2023-09-12T03:23:31;3.33;;;3.00;;
7969;SDS011;4030;52.362;9.206;2023-09-12T03:26:04;3.55;;;3.20;;
7969;SDS011;4030;52.362;9.206;2023-09-12T03:28:31;4.50;;;3.10;;
7969;SDS011;4030;52.362;9.206;2023-09-12T03:31:05;3.80;;;3.50;;
7969;SDS011;4030;52.362;9.206;2023-09-12T03:33:39;5.97;;;3.60;;
7969;SDS011;4030;52.362;9.206;2023-09-12T03:36:06;3.40;;;3.05;;
7969;SDS011;4030;52.362;9.206;2023-09-12T03:38:34;4.38;;;3.50;;
7969;SDS011;4030;52.362;9.206;2023-09-12T03:41:00;4.80;;;3.60;;
7969;SDS011;4030;52.362;9.206;2023-09-12T03:43:26;3.80;;;3.47;;
7969;SDS011;4030;52.362;9.206;2023-09-12T03:45:52;4.90;;;3.65;;
7969;SDS011;4030;52.362;9.206;2023-09-12T03:48:18;4.60;;;3.47;;
7969;SDS011;4030;52.362;9.206;2023-09-12T03:50:44;4.72;;;3.78;;
7969;SDS011;4030;52.362;9.206;2023-09-12T03:53:10;3.83;;;3.53;;
7969;SDS011;4030;52.362;9.206;2023-09-12T03:55:39;4.35;;;3.90;;
7969;SDS011;4030;52.362;9.206;2023-09-12T03:58:04;5.30;;;3.67;;
7969;SDS011;4030;52.362;9.206;2023-09-12T04:00:30;4.03;;;3.63;;
7969;SDS011;4030;52.362;9.206;2023-09-12T04:02:56;4.22;;;3.80;;
7969;SDS011;4030;52.362;9.206;2023-09-12T04:05:21;4.28;;;3.88;;
7969;SDS011;4030;52.362;9.206;2023-09-12T04:07:47;4.13;;;3.65;;
7969;SDS011;4030;52.362;9.206;2023-09-12T04:10:13;4.70;;;3.53;;
7969;SDS011;4030;52.362;9.206;2023-09-12T04:12:39;4.20;;;3.45;;
7969;SDS011;4030;52.362;9.206;2023-09-12T04:15:05;4.28;;;3.72;;
7969;SDS011;4030;52.362;9.206;2023-09-12T04:17:31;4.05;;;3.65;;
7969;SDS011;4030;52.362;9.206;2023-09-12T04:19:57;4.65;;;3.88;;
7969;SDS011;4030;52.362;9.206;2023-09-12T04:22:22;4.53;;;4.13;;
7969;SDS011;4030;52.362;9.206;2023-09-12T04:24:48;4.05;;;3.65;;
7969;SDS011;4030;52.362;9.206;2023-09-12T04:27:14;4.50;;;4.10;;
7969;SDS011;4030;52.362;9.206;2023-09-12T04:29:39;5.55;;;4.07;;
7969;SDS011;4030;52.362;9.206;2023-09-12T04:32:05;4.35;;;3.95;;
7969;SDS011;4030;52.362;9.206;2023-09-12T04:34:31;4.35;;;3.90;;
7969;SDS011;4030;52.362;9.206;2023-09-12T04:36:57;4.40;;;3.85;;
7969;SDS011;4030;52.362;9.206;2023-09-12T04:39:23;4.35;;;3.92;;
7969;SDS011;4030;52.362;9.206;2023-09-12T04:41:48;4.07;;;3.78;;
7969;SDS011;4030;52.362;9.206;2023-09-12T04:44:14;4.00;;;3.70;;
7969;SDS011;4030;52.362;9.206;2023-09-12T04:46:40;4.25;;;3.85;;
7969;SDS011;4030;52.362;9.206;2023-09-12T04:49:05;4.20;;;3.80;;
7969;SDS011;4030;52.362;9.206;2023-09-12T04:51:31;4.72;;;4.28;;
7969;SDS011;4030;52.362;9.206;2023-09-12T04:53:57;4.70;;;4.30;;
7969;SDS011;4030;52.362;9.206;2023-09-12T04:56:23;4.78;;;4.30;;
7969;SDS011;4030;52.362;9.206;2023-09-12T04:58:51;5.63;;;4.80;;
7969;SDS011;4030;52.362;9.206;2023-09-12T05:01:17;5.25;;;4.75;;
7969;SDS011;4030;52.362;9.206;2023-09-12T05:03:43;5.93;;;4.63;;
7969;SDS011;4030;52.362;9.206;2023-09-12T05:06:09;6.28;;;4.43;;
7969;SDS011;4030;52.362;9.206;2023-09-12T05:08:36;6.97;;;4.72;;
7969;SDS011;4030;52.362;9.206;2023-09-12T05:11:01;7.35;;;5.03;;
7969;SDS011;4030;52.362;9.206;2023-09-12T05:13:28;5.95;;;4.80;;
7969;SDS011;4030;52.362;9.206;2023-09-12T05:15:54;5.47;;;4.43;;
7969;SDS011;4030;52.362;9.206;2023-09-12T05:18:21;7.03;;;5.03;;
7969;SDS011;4030;52.362;9.206;2023-09-12T05:20:47;6.72;;;4.30;;
7969;SDS011;4030;52.362;9.206;2023-09-12T05:23:13;6.60;;;4.93;;
7969;SDS011;4030;52.362;9.206;2023-09-12T05:25:39;5.82;;;4.68;;
7969;SDS011;4030;52.362;9.206;2023-09-12T05:28:04;5.13;;;4.20;;
7969;SDS011;4030;52.362;9.206;2023-09-12T05:30:30;5.18;;;4.53;;
7969;SDS011;4030;52.362;9.206;2023-09-12T05:32:56;5.80;;;4.10;;
7969;SDS011;4030;52.362;9.206;2023-09-12T05:35:22;6.85;;;4.20;;
7969;SDS011;4030;52.362;9.206;2023-09-12T05:37:48;5.38;;;4.20;;
7969;SDS011;4030;52.362;9.206;2023-09-12T05:40:14;5.97;;;4.15;;
7969;SDS011;4030;52.362;9.206;2023-09-12T05:42:39;5.93;;;4.13;;
7969;SDS011;4030;52.362;9.206;2023-09-12T05:45:05;5.95;;;4.20;;
7969;SDS011;4030;52.362;9.206;2023-09-12T05:47:32;5.75;;;3.85;;
7969;SDS011;4030;52.362;9.206;2023-09-12T05:49:57;5.68;;;3.70;;
7969;SDS011;4030;52.362;9.206;2023-09-12T05:52:24;6.93;;;3.60;;
7969;SDS011;4030;52.362;9.206;2023-09-12T05:54:50;4.43;;;3.80;;
7969;SDS011;4030;52.362;9.206;2023-09-12T05:57:16;5.10;;;3.78;;
7969;SDS011;4030;52.362;9.206;2023-09-12T05:59:41;4.20;;;3.65;;
7969;SDS011;4030;52.362;9.206;2023-09-12T06:02:07;5.38;;;3.90;;
7969;SDS011;4030;52.362;9.206;2023-09-12T06:04:36;4.88;;;3.70;;
7969;SDS011;4030;52.362;9.206;2023-09-12T06:07:02;4.55;;;3.55;;
7969;SDS011;4030;52.362;9.206;2023-09-12T06:09:28;5.03;;;4.07;;
7969;SDS011;4030;52.362;9.206;2023-09-12T06:11:54;4.90;;;3.75;;
7969;SDS011;4030;52.362;9.206;2023-09-12T06:14:20;5.15;;;3.67;;
7969;SDS011;4030;52.362;9.206;2023-09-12T06:16:46;4.60;;;3.60;;
7969;SDS011;4030;52.362;9.206;2023-09-12T06:19:12;5.35;;;3.67;;
7969;SDS011;4030;52.362;9.206;2023-09-12T06:21:39;6.13;;;3.50;;
7969;SDS011;4030;52.362;9.206;2023-09-12T06:24:15;3.65;;;3.20;;
7969;SDS011;4030;52.362;9.206;2023-09-12T06:26:46;4.07;;;3.15;;
7969;SDS011;4030;52.362;9.206;2023-09-12T06:29:12;4.03;;;3.28;;
7969;SDS011;4030;52.362;9.206;2023-09-12T06:31:39;6.53;;;3.45;;
7969;SDS011;4030;52.362;9.206;2023-09-12T06:34:08;4.00;;;3.20;;
7969;SDS011;4030;52.362;9.206;2023-09-12T06:36:35;4.53;;;3.42;;
7969;SDS011;4030;52.362;9.206;2023-09-12T06:39:01;5.18;;;3.90;;
7969;SDS011;4030;52.362;9.206;2023-09-12T06:41:30;4.88;;;3.10;;
7969;SDS011;4030;52.362;9.206;2023-09-12T06:43:56;3.65;;;3.05;;
7969;SDS011;4030;52.362;9.206;2023-09-12T06:46:23;3.25;;;2.72;;
7969;SDS011;4030;52.362;9.206;2023-09-12T06:48:49;5.32;;;3.65;;
7969;SDS011;4030;52.362;9.206;2023-09-12T06:51:15;4.85;;;3.10;;
7969;SDS011;4030;52.362;9.206;2023-09-12T06:53:42;4.63;;;3.35;;
7969;SDS011;4030;52.362;9.206;2023-09-12T06:56:08;4.50;;;3.45;;
7969;SDS011;4030;52.362;9.206;2023-09-12T06:58:34;5.07;;;3.10;;
7969;SDS011;4030;52.362;9.206;2023-09-12T07:01:06;4.80;;;3.53;;
7969;SDS011;4030;52.362;9.206;2023-09-12T07:03:32;4.72;;;3.10;;
7969;SDS011;4030;52.362;9.206;2023-09-12T07:06:00;5.32;;;3.38;;
7969;SDS011;4030;52.362;9.206;2023-09-12T07:08:26;4.03;;;3.47;;
7969;SDS011;4030;52.362;9.206;2023-09-12T07:10:55;4.15;;;3.72;;
7969;SDS011;4030;52.362;9.206;2023-09-12T07:13:22;4.18;;;3.55;;
7969;SDS011;4030;52.362;9.206;2023-09-12T07:15:49;3.78;;;3.05;;
7969;SDS011;4030;52.362;9.206;2023-09-12T07:18:15;3.88;;;3.40;;
7969;SDS011;4030;52.362;9.206;2023-09-12T07:20:42;3.78;;;3.38;;
7969;SDS011;4030;52.362;9.206;2023-09-12T07:23:07;3.40;;;3.10;;
7969;SDS011;4030;52.362;9.206;2023-09-12T07:25:39;3.78;;;3.42;;
7969;SDS011;4030;52.362;9.206;2023-09-12T07:28:06;5.30;;;3.65;;
7969;SDS011;4030;52.362;9.206;2023-09-12T07:30:33;4.97;;;3.67;;
7969;SDS011;4030;52.362;9.206;2023-09-12T07:32:59;4.57;;;3.70;;
7969;SDS011;4030;52.362;9.206;2023-09-12T07:35:24;6.00;;;3.90;;
7969;SDS011;4030;52.362;9.206;2023-09-12T07:37:50;5.68;;;3.63;;
7969;SDS011;4030;52.362;9.206;2023-09-12T07:40:16;3.90;;;3.50;;
7969;SDS011;4030;52.362;9.206;2023-09-12T07:42:43;5.32;;;3.90;;
7969;SDS011;4030;52.362;9.206;2023-09-12T07:45:09;4.53;;;3.80;;
7969;SDS011;4030;52.362;9.206;2023-09-12T07:47:35;4.88;;;3.75;;
7969;SDS011;4030;52.362;9.206;2023-09-12T07:50:00;5.03;;;3.97;;
7969;SDS011;4030;52.362;9.206;2023-09-12T07:52:26;4.53;;;3.78;;
7969;SDS011;4030;52.362;9.206;2023-09-12T07:54:52;4.25;;;3.67;;
7969;SDS011;4030;52.362;9.206;2023-09-12T07:57:24;5.38;;;3.90;;
7969;SDS011;4030;52.362;9.206;2023-09-12T07:59:50;5.30;;;3.78;;
7969;SDS011;4030;52.362;9.206;2023-09-12T08:02:15;4.53;;;3.63;;
7969;SDS011;4030;52.362;9.206;2023-09-12T08:04:41;5.35;;;3.80;;
7969;SDS011;4030;52.362;9.206;2023-09-12T08:07:07;5.10;;;3.60;;
7969;SDS011;4030;52.362;9.206;2023-09-12T08:12:31;4.93;;;3.22;;
7969;SDS011;4030;52.362;9.206;2023-09-12T08:14:57;6.28;;;4.05;;
7969;SDS011;4030;52.362;9.206;2023-09-12T08:17:24;6.72;;;3.47;;
7969;SDS011;4030;52.362;9.206;2023-09-12T08:19:51;5.72;;;3.53;;
7969;SDS011;4030;52.362;9.206;2023-09-12T08:22:17;5.65;;;3.85;;
7969;SDS011;4030;52.362;9.206;2023-09-12T08:24:43;4.25;;;3.40;;
7969;SDS011;4030;52.362;9.206;2023-09-12T08:27:09;4.30;;;3.78;;
7969;SDS011;4030;52.362;9.206;2023-09-12T08:29:35;5.10;;;3.42;;
7969;SDS011;4030;52.362;9.206;2023-09-12T08:32:01;3.92;;;3.35;;
7969;SDS011;4030;52.362;9.206;2023-09-12T08:34:27;5.35;;;3.47;;
7969;SDS011;4030;52.362;9.206;2023-09-12T08:36:53;4.15;;;3.75;;
7969;SDS011;4030;52.362;9.206;2023-09-12T08:39:23;4.00;;;3.35;;
7969;SDS011;4030;52.362;9.206;2023-09-12T08:41:51;4.65;;;3.78;;
7969;SDS011;4030;52.362;9.206;2023-09-12T08:44:18;3.83;;;3.30;;
7969;SDS011;4030;52.362;9.206;2023-09-12T08:46:45;7.30;;;3.55;;
7969;SDS011;4030;52.362;9.206;2023-09-12T08:49:11;3.92;;;3.22;;
7969;SDS011;4030;52.362;9.206;2023-09-12T08:51:37;4.80;;;3.40;;
7969;SDS011;4030;52.362;9.206;2023-09-12T08:54:04;5.35;;;3.70;;
7969;SDS011;4030;52.362;9.206;2023-09-12T08:56:32;5.75;;;3.83;;
7969;SDS011;4030;52.362;9.206;2023-09-12T08:59:01;5.38;;;3.70;;
7969;SDS011;4030;52.362;9.206;2023-09-12T09:01:32;4.72;;;3.58;;
7969;SDS011;4030;52.362;9.206;2023-09-12T09:04:00;4.60;;;3.88;;
7969;SDS011;4030;52.362;9.206;2023-09-12T09:06:28;4.60;;;3.60;;
7969;SDS011;4030;52.362;9.206;2023-09-12T09:08:57;4.80;;;3.60;;
7969;SDS011;4030;52.362;9.206;2023-09-12T09:11:25;4.60;;;3.40;;
7969;SDS011;4030;52.362;9.206;2023-09-12T09:13:53;4.88;;;3.80;;
7969;SDS011;4030;52.362;9.206;2023-09-12T09:16:19;4.22;;;3.20;;
7969;SDS011;4030;52.362;9.206;2023-09-12T09:18:50;4.85;;;3.60;;
7969;SDS011;4030;52.362;9.206;2023-09-12T09:21:26;5.35;;;3.97;;
7969;SDS011;4030;52.362;9.206;2023-09-12T09:23:57;4.10;;;3.60;;
7969;SDS011;4030;52.362;9.206;2023-09-12T09:29:15;4.15;;;3.33;;
7969;SDS011;4030;52.362;9.206;2023-09-12T09:31:42;4.95;;;3.47;;
7969;SDS011;4030;52.362;9.206;2023-09-12T09:34:14;3.95;;;3.28;;
7969;SDS011;4030;52.362;9.206;2023-09-12T09:36:55;4.25;;;3.47;;
7969;SDS011;4030;52.362;9.206;2023-09-12T09:39:23;4.47;;;3.35;;
7969;SDS011;4030;52.362;9.206;2023-09-12T09:41:54;4.47;;;3.28;;
7969;SDS011;4030;52.362;9.206;2023-09-12T09:44:25;3.55;;;3.20;;
7969;SDS011;4030;52.362;9.206;2023-09-12T09:46:55;4.80;;;3.28;;
7969;SDS011;4030;52.362;9.206;2023-09-12T09:49:26;4.47;;;3.42;;
7969;SDS011;4030;52.362;9.206;2023-09-12T09:51:52;5.38;;;3.50;;
7969;SDS011;4030;52.362;9.206;2023-09-12T09:54:21;5.50;;;3.28;;
7969;SDS011;4030;52.362;9.206;2023-09-12T09:56:53;3.22;;;2.72;;
7969;SDS011;4030;52.362;9.206;2023-09-12T09:59:24;5.20;;;3.30;;
7969;SDS011;4030;52.362;9.206;2023-09-12T10:01:53;4.65;;;3.53;;
7969;SDS011;4030;52.362;9.206;2023-09-12T10:04:25;4.30;;;3.17;;
7969;SDS011;4030;52.362;9.206;2023-09-12T10:06:53;3.47;;;2.95;;
7969;SDS011;4030;52.362;9.206;2023-09-12T10:09:25;4.70;;;3.38;;
7969;SDS011;4030;52.362;9.206;2023-09-12T10:11:52;5.53;;;3.45;;
7969;SDS011;4030;52.362;9.206;2023-09-12T10:14:21;4.28;;;3.10;;
7969;SDS011;4030;52.362;9.206;2023-09-12T10:16:49;3.35;;;3.05;;
7969;SDS011;4030;52.362;9.206;2023-09-12T10:19:22;6.45;;;3.78;;
7969;SDS011;4030;52.362;9.206;2023-09-12T10:21:57;4.72;;;3.40;;
7969;SDS011;4030;52.362;9.206;2023-09-12T10:24:35;3.30;;;3.00;;
7969;SDS011;4030;52.362;9.206;2023-09-12T10:27:02;4.03;;;3.05;;
7969;SDS011;4030;52.362;9.206;2023-09-12T10:29:30;3.70;;;3.40;;
7969;SDS011;4030;52.362;9.206;2023-09-12T10:31:56;4.07;;;3.30;;
7969;SDS011;4030;52.362;9.206;2023-09-12T10:34:22;5.30;;;3.45;;
7969;SDS011;4030;52.362;9.206;2023-09-12T10:36:51;4.35;;;3.10;;
7969;SDS011;4030;52.362;9.206;2023-09-12T10:39:20;3.92;;;3.28;;
7969;SDS011;4030;52.362;9.206;2023-09-12T10:41:47;4.45;;;3.33;;
7969;SDS011;4030;52.362;9.206;2023-09-12T10:44:17;3.40;;;3.10;;
7969;SDS011;4030;52.362;9.206;2023-09-12T10:46:43;4.95;;;3.20;;
7969;SDS011;4030;52.362;9.206;2023-09-12T10:49:11;3.65;;;3.22;;
7969;SDS011;4030;52.362;9.206;2023-09-12T10:51:38;4.25;;;3.35;;
7969;SDS011;4030;52.362;9.206;2023-09-12T10:54:06;4.03;;;3.10;;
7969;SDS011;4030;52.362;9.206;2023-09-12T10:56:35;4.03;;;3.53;;
7969;SDS011;4030;52.362;9.206;2023-09-12T11:01:33;4.53;;;3.25;;
7969;SDS011;4030;52.362;9.206;2023-09-12T11:06:44;3.53;;;2.90;;
7969;SDS011;4030;52.362;9.206;2023-09-12T11:11:42;4.15;;;3.22;;
7969;SDS011;4030;52.362;9.206;2023-09-12T11:14:14;3.33;;;3.03;;
7969;SDS011;4030;52.362;9.206;2023-09-12T11:16:41;3.55;;;3.25;;
7969;SDS011;4030;52.362;9.206;2023-09-12T11:19:15;3.47;;;3.17;;
7969;SDS011;4030;52.362;9.206;2023-09-12T11:21:52;3.40;;;3.10;;
7969;SDS011;4030;52.362;9.206;2023-09-12T11:24:19;3.45;;;3.10;;
7969;SDS011;4030;52.362;9.206;2023-09-12T11:29:35;3.63;;;2.85;;
7969;SDS011;4030;52.362;9.206;2023-09-12T11:32:04;3.17;;;2.88;;
7969;SDS011;4030;52.362;9.206;2023-09-12T11:34:43;3.20;;;2.92;;
7969;SDS011;4030;52.362;9.206;2023-09-12T11:37:09;3.45;;;2.80;;
7969;SDS011;4030;52.362;9.206;2023-09-12T11:39:36;3.42;;;2.78;;
7969;SDS011;4030;52.362;9.206;2023-09-12T11:42:04;3.78;;;2.70;;
7969;SDS011;4030;52.362;9.206;2023-09-12T11:44:33;4.13;;;2.78;;
7969;SDS011;4030;52.362;9.206;2023-09-12T11:46:59;2.90;;;2.70;;
7969;SDS011;4030;52.362;9.206;2023-09-12T11:49:40;3.80;;;2.70;;
7969;SDS011;4030;52.362;9.206;2023-09-12T11:52:13;3.63;;;2.63;;
7969;SDS011;4030;52.362;9.206;2023-09-12T11:54:44;3.08;;;2.60;;
7969;SDS011;4030;52.362;9.206;2023-09-12T11:57:12;2.75;;;2.45;;
7969;SDS011;4030;52.362;9.206;2023-09-12T11:59:40;2.95;;;2.15;;
7969;SDS011;4030;52.362;9.206;2023-09-12T12:02:10;3.83;;;2.60;;
7969;SDS011;4030;52.362;9.206;2023-09-12T12:04:36;3.28;;;2.40;;
7969;SDS011;4030;52.362;9.206;2023-09-12T12:07:03;3.55;;;2.50;;
7969;SDS011;4030;52.362;9.206;2023-09-12T12:09:29;3.38;;;2.35;;
7969;SDS011;4030;52.362;9.206;2023-09-12T12:11:56;3.65;;;2.40;;
7969;SDS011;4030;52.362;9.206;2023-09-12T12:14:28;2.25;;;2.03;;
7969;SDS011;4030;52.362;9.206;2023-09-12T12:17:05;2.50;;;2.30;;
7969;SDS011;4030;52.362;9.206;2023-09-12T12:19:35;3.63;;;2.20;;
7969;SDS011;4030;52.362;9.206;2023-09-12T12:22:02;2.40;;;2.20;;
7969;SDS011;4030;52.362;9.206;2023-09-12T12:24:45;3.15;;;2.10;;
7969;SDS011;4030;52.362;9.206;2023-09-12T12:27:14;2.90;;;2.30;;
7969;SDS011;4030;52.362;9.206;2023-09-12T12:29:41;2.85;;;2.15;;
7969;SDS011;4030;52.362;9.206;2023-09-12T12:32:08;2.70;;;1.95;;
7969;SDS011;4030;52.362;9.206;2023-09-12T12:34:35;2.13;;;1.90;;
7969;SDS011;4030;52.362;9.206;2023-09-12T12:37:02;2.10;;;1.90;;
7969;SDS011;4030;52.362;9.206;2023-09-12T12:39:28;2.65;;;2.00;;
7969;SDS011;4030;52.362;9.206;2023-09-12T12:41:54;2.10;;;1.90;;
7969;SDS011;4030;52.362;9.206;2023-09-12T12:44:20;2.50;;;1.90;;
7969;SDS011;4030;52.362;9.206;2023-09-12T12:46:53;2.17;;;1.90;;
7969;SDS011;4030;52.362;9.206;2023-09-12T12:49:20;2.20;;;1.70;;
7969;SDS011;4030;52.362;9.206;2023-09-12T12:51:47;1.88;;;1.67;;
7969;SDS011;4030;52.362;9.206;2023-09-12T12:54:13;3.03;;;1.88;;
7969;SDS011;4030;52.362;9.206;2023-09-12T12:56:40;3.20;;;1.73;;
7969;SDS011;4030;52.362;9.206;2023-09-12T12:59:06;3.53;;;1.73;;
7969;SDS011;4030;52.362;9.206;2023-09-12T13:01:37;2.65;;;1.30;;
7969;SDS011;4030;52.362;9.206;2023-09-12T13:04:04;1.98;;;1.65;;
7969;SDS011;4030;52.362;9.206;2023-09-12T13:06:32;1.70;;;1.50;;
7969;SDS011;4030;52.362;9.206;2023-09-12T13:09:00;1.70;;;1.38;;
7969;SDS011;4030;52.362;9.206;2023-09-12T13:11:29;2.55;;;1.52;;
7969;SDS011;4030;52.362;9.206;2023-09-12T13:13:56;1.90;;;1.65;;
7969;SDS011;4030;52.362;9.206;2023-09-12T13:16:21;1.50;;;1.35;;
7969;SDS011;4030;52.362;9.206;2023-09-12T13:18:47;1.88;;;1.58;;
7969;SDS011;4030;52.362;9.206;2023-09-12T13:21:13;1.55;;;1.23;;
7969;SDS011;4030;52.362;9.206;2023-09-12T13:23:39;1.85;;;1.50;;
7969;SDS011;4030;52.362;9.206;2023-09-12T13:26:06;2.30;;;1.30;;
7969;SDS011;4030;52.362;9.206;2023-09-12T13:28:33;1.38;;;1.20;;
7969;SDS011;4030;52.362;9.206;2023-09-12T13:30:58;1.55;;;1.42;;
7969;SDS011;4030;52.362;9.206;2023-09-12T13:33:24;2.15;;;1.40;;
7969;SDS011;4030;52.362;9.206;2023-09-12T13:35:50;2.15;;;1.25;;
7969;SDS011;4030;52.362;9.206;2023-09-12T13:38:17;2.33;;;1.40;;
7969;SDS011;4030;52.362;9.206;2023-09-12T13:40:44;1.20;;;1.10;;
7969;SDS011;4030;52.362;9.206;2023-09-12T13:43:11;1.40;;;1.27;;
7969;SDS011;4030;52.362;9.206;2023-09-12T13:45:37;1.95;;;1.38;;
7969;SDS011;4030;52.362;9.206;2023-09-12T13:48:03;2.47;;;1.40;;
7969;SDS011;4030;52.362;9.206;2023-09-12T13:50:31;1.48;;;1.20;;
7969;SDS011;4030;52.362;9.206;2023-09-12T13:52:58;1.77;;;1.15;;
7969;SDS011;4030;52.362;9.206;2023-09-12T13:55:25;1.40;;;1.13;;
7969;SDS011;4030;52.362;9.206;2023-09-12T13:57:51;2.65;;;1.35;;
7969;SDS011;4030;52.362;9.206;2023-09-12T14:00:17;1.60;;;1.50;;
7969;SDS011;4030;52.362;9.206;2023-09-12T14:02:43;1.35;;;1.25;;
7969;SDS011;4030;52.362;9.206;2023-09-12T14:05:11;1.42;;;1.30;;
7969;SDS011;4030;52.362;9.206;2023-09-12T14:07:37;1.45;;;1.20;;
7969;SDS011;4030;52.362;9.206;2023-09-12T14:10:05;1.50;;;1.40;;
7969;SDS011;4030;52.362;9.206;2023-09-12T14:12:32;1.77;;;1.38;;
7969;SDS011;4030;52.362;9.206;2023-09-12T14:14:57;1.10;;;1.00;;
7969;SDS011;4030;52.362;9.206;2023-09-12T14:17:23;1.73;;;1.40;;
7969;SDS011;4030;52.362;9.206;2023-09-12T14:19:49;2.40;;;1.40;;
7969;SDS011;4030;52.362;9.206;2023-09-12T14:22:15;1.48;;;1.20;;
7969;SDS011;4030;52.362;9.206;2023-09-12T14:24:40;2.58;;;1.30;;
7969;SDS011;4030;52.362;9.206;2023-09-12T14:27:06;1.50;;;1.30;;
7969;SDS011;4030;52.362;9.206;2023-09-12T14:29:32;2.75;;;1.30;;
7969;SDS011;4030;52.362;9.206;2023-09-12T14:31:57;1.55;;;1.35;;
7969;SDS011;4030;52.362;9.206;2023-09-12T14:34:24;1.80;;;1.23;;
7969;SDS011;4030;52.362;9.206;2023-09-12T14:36:54;1.35;;;1.25;;
7969;SDS011;4030;52.362;9.206;2023-09-12T14:39:21;1.50;;;1.30;;
7969;SDS011;4030;52.362;9.206;2023-09-12T14:41:47;1.55;;;1.35;;
7969;SDS011;4030;52.362;9.206;2023-09-12T14:44:25;1.58;;;1.30;;
7969;SDS011;4030;52.362;9.206;2023-09-12T14:46:53;1.52;;;1.40;;
7969;SDS011;4030;52.362;9.206;2023-09-12T14:49:19;1.30;;;1.20;;
7969;SDS011;4030;52.362;9.206;2023-09-12T14:51:45;1.73;;;1.42;;
7969;SDS011;4030;52.362;9.206;2023-09-12T14:54:10;4.40;;;1.55;;
7969;SDS011;4030;52.362;9.206;2023-09-12T14:56:38;1.40;;;1.30;;
7969;SDS011;4030;52.362;9.206;2023-09-12T14:59:04;1.58;;;1.45;;
7969;SDS011;4030;52.362;9.206;2023-09-12T15:01:30;1.20;;;1.10;;
7969;SDS011;4030;52.362;9.206;2023-09-12T15:03:56;1.83;;;1.30;;
7969;SDS011;4030;52.362;9.206;2023-09-12T15:06:22;1.60;;;1.50;;
7969;SDS011;4030;52.362;9.206;2023-09-12T15:08:48;2.03;;;1.40;;
7969;SDS011;4030;52.362;9.206;2023-09-12T15:11:15;1.60;;;1.27;;
7969;SDS011;4030;52.362;9.206;2023-09-12T15:13:41;1.50;;;1.38;;
7969;SDS011;4030;52.362;9.206;2023-09-12T15:16:06;1.60;;;1.50;;
7969;SDS011;4030;52.362;9.206;2023-09-12T15:18:32;1.60;;;1.42;;
7969;SDS011;4030;52.362;9.206;2023-09-12T15:20:58;1.70;;;1.50;;
7969;SDS011;4030;52.362;9.206;2023-09-12T15:23:24;2.38;;;1.48;;
7969;SDS011;4030;52.362;9.206;2023-09-12T15:25:50;1.52;;;1.35;;
7969;SDS011;4030;52.362;9.206;2023-09-12T15:28:16;2.42;;;1.40;;
7969;SDS011;4030;52.362;9.206;2023-09-12T15:30:42;1.55;;;1.40;;
7969;SDS011;4030;52.362;9.206;2023-09-12T15:33:08;1.60;;;1.48;;
7969;SDS011;4030;52.362;9.206;2023-09-12T15:35:34;2.08;;;1.67;;